Time;durP1;ratioP1;P1;durP2;ratioP2;P2;SDS_P1;SDS_P2;PMS_P1;PMS_P2;Temp;Humidity;BMP_temperature;BMP_pressure;BME280_temperature;BME280_humidity;BME280_pressure;Samples;Min_cycle;Max_cycle;Signal;HPM_P1;HPM_P2
2022/09/24 00:00:51;;;;;;;41.53;31.65;;;;;;;11.52;100.00;101197.97;5112335;28;20020;-47
2022/09/24 00:03:20;;;;;;;45.70;32.38;;;;;;;11.47;100.00;101205.53;5113186;28;20030;-45
2022/09/24 00:05:47;;;;;;;40.85;30.52;;;;;;;11.45;100.00;101202.06;5112765;28;20106;-43
2022/09/24 00:08:14;;;;;;;43.28;30.23;;;;;;;11.41;100.00;101204.47;5112585;28;20028;-46
2022/09/24 00:10:41;;;;;;;44.38;32.10;;;;;;;11.44;100.00;101210.63;5113079;28;20019;-43
2022/09/24 00:13:08;;;;;;;38.10;29.83;;;;;;;11.41;100.00;101197.59;5113228;28;20024;-46
2022/09/24 00:15:52;;;;;;;37.05;28.65;;;;;;;11.41;100.00;101197.59;5112143;28;20031;-47
2022/09/24 00:18:17;;;;;;;38.58;30.55;;;;;;;11.40;100.00;101190.72;5113351;28;20038;-46
2022/09/24 00:20:43;;;;;;;40.67;29.23;;;;;;;11.38;100.00;101192.34;5112748;28;20421;-43
2022/09/24 00:23:10;;;;;;;37.85;28.73;;;;;;;11.38;100.00;101188.91;5112609;28;20158;-46
2022/09/24 00:28:28;;;;;;;36.60;28.42;;;;;;;11.36;100.00;101187.16;5112466;28;20505;-45
2022/09/24 00:30:53;;;;;;;37.95;29.90;;;;;;;11.36;100.00;101183.69;5112946;28;20034;-46
2022/09/24 00:33:20;;;;;;;40.65;30.23;;;;;;;11.35;100.00;101179.38;5114975;28;20015;-47
2022/09/24 00:35:45;;;;;;;42.25;29.45;;;;;;;11.36;100.00;101182.00;5115781;28;20561;-43
2022/09/24 00:38:11;;;;;;;36.80;29.48;;;;;;;11.35;100.00;101174.22;5116979;28;20039;-47
2022/09/24 00:40:38;;;;;;;37.65;28.77;;;;;;;11.33;100.00;101175.84;5116262;28;20042;-47
2022/09/24 00:43:26;;;;;;;38.13;28.67;;;;;;;11.35;100.00;101179.38;5115874;28;20058;-43
2022/09/24 00:45:56;;;;;;;39.13;28.17;;;;;;;11.35;100.00;101175.06;5116618;28;20027;-47
2022/09/24 00:48:21;;;;;;;36.97;28.98;;;;;;;11.35;100.00;101174.22;5116648;28;20098;-43
2022/09/24 00:50:47;;;;;;;40.25;29.25;;;;;;;11.35;100.00;101171.63;5115570;28;20038;-47
2022/09/24 00:53:15;;;;;;;40.65;28.92;;;;;;;11.34;100.00;101167.28;5116473;28;20431;-43
2022/09/24 00:55:44;;;;;;;34.70;28.05;;;;;;;11.34;100.00;101167.28;5116023;28;20115;-46
2022/09/24 00:58:11;;;;;;;40.33;29.92;;;;;;;11.35;100.00;101161.31;5115991;28;20099;-44
2022/09/24 01:00:37;;;;;;;41.40;29.05;;;;;;;11.35;100.00;101163.88;5116231;28;20023;-43
2022/09/24 01:03:11;;;;;;;39.70;28.40;;;;;;;11.37;100.00;101162.22;5116250;28;20027;-45
2022/09/24 01:05:37;;;;;;;38.40;29.58;;;;;;;11.35;100.00;101156.16;5115416;28;20023;-44
2022/09/24 01:08:05;;;;;;;36.75;28.48;;;;;;;11.36;100.00;101150.13;5116172;28;20019;-46
2022/09/24 01:10:49;;;;;;;33.95;26.35;;;;;;;11.38;100.00;101153.66;5116007;28;20016;-44
2022/09/24 01:13:33;;;;;;;33.50;26.00;;;;;;;11.40;100.00;101146.84;5116282;28;20076;-44
2022/09/24 01:16:05;;;;;;;32.50;25.27;;;;;;;11.39;100.00;101139.91;5116092;28;20102;-46
2022/09/24 01:18:46;;;;;;;32.20;25.20;;;;;;;11.40;100.00;101141.69;5115002;28;20075;-46
2022/09/24 01:21:29;;;;;;;32.80;25.10;;;;;;;11.38;100.00;101137.31;5116180;28;20070;-46
2022/09/24 01:24:14;;;;;;;35.75;26.83;;;;;;;11.41;100.00;101133.09;5115467;28;20106;-45
2022/09/24 01:26:56;;;;;;;35.22;25.80;;;;;;;11.38;100.00;101130.41;5115127;28;20031;-45
2022/09/24 01:29:31;;;;;;;32.78;25.83;;;;;;;11.40;100.00;101125.28;5116071;28;20034;-46
2022/09/24 01:32:04;;;;;;;31.58;24.88;;;;;;;11.41;100.00;101127.91;5115138;28;20110;-48
2022/09/24 01:34:38;;;;;;;33.45;25.17;;;;;;;11.38;100.00;101127.84;5115808;28;20031;-46
2022/09/24 01:37:05;;;;;;;31.00;23.80;;;;;;;11.39;100.00;101124.44;5115642;28;20474;-48
2022/09/24 01:39:34;;;;;;;30.75;23.98;;;;;;;11.40;100.00;101120.13;5114299;28;20027;-45
2022/09/24 01:42:00;;;;;;;31.40;24.42;;;;;;;11.41;100.00;101115.00;5115726;28;20051;-46
2022/09/24 01:44:26;;;;;;;29.90;23.92;;;;;;;11.38;100.00;101114.94;5115133;28;20435;-46
2022/09/24 01:46:52;;;;;;;33.05;24.67;;;;;;;11.38;100.00;101114.06;5114349;28;20024;-45
2022/09/24 01:49:18;;;;;;;33.30;25.55;;;;;;;11.37;100.00;101115.75;5115449;28;20417;-45
2022/09/24 01:51:55;;;;;;;30.90;23.73;;;;;;;11.41;100.00;101111.56;5115122;28;20475;-45
2022/09/24 01:54:31;;;;;;;31.40;25.08;;;;;;;11.41;100.00;101115.00;5115462;28;20028;-46
2022/09/24 01:57:12;;;;;;;30.77;23.70;;;;;;;11.43;100.00;101115.94;5115802;28;20019;-45
2022/09/24 01:59:45;;;;;;;32.55;24.85;;;;;;;11.44;100.00;101116.81;5114752;28;20031;-45
2022/09/24 02:02:16;;;;;;;31.17;24.52;;;;;;;11.42;100.00;101106.44;5114496;28;20107;-48
2022/09/24 02:04:50;;;;;;;33.58;23.80;;;;;;;11.41;100.00;101102.13;5114998;28;20036;-45
2022/09/24 02:07:23;;;;;;;33.20;24.92;;;;;;;11.41;100.00;101102.13;5114423;28;20047;-45
2022/09/24 02:09:49;;;;;;;34.88;25.65;;;;;;;11.40;100.00;101110.72;5114958;28;20020;-46
2022/09/24 02:12:18;;;;;;;31.95;24.88;;;;;;;11.40;100.00;101105.53;5114957;28;20093;-44
2022/09/24 02:14:53;;;;;;;30.27;24.30;;;;;;;11.40;100.00;101107.22;5113730;28;20034;-47
2022/09/24 02:17:22;;;;;;;34.15;25.33;;;;;;;11.40;100.00;101105.53;5115045;28;20027;-47
2022/09/24 02:19:49;;;;;;;33.55;26.08;;;;;;;11.38;100.00;101099.44;5114719;28;20027;-49
2022/09/24 02:22:16;;;;;;;34.40;25.17;;;;;;;11.39;100.00;101103.78;5113766;28;20508;-44
2022/09/24 02:24:49;;;;;;;35.60;27.08;;;;;;;11.38;100.00;101096.88;5114476;28;20122;-45
2022/09/24 02:27:15;;;;;;;31.70;25.35;;;;;;;11.39;100.00;101097.72;5114282;28;20361;-46
2022/09/24 02:29:40;;;;;;;32.45;25.08;;;;;;;11.38;100.00;101093.44;5113744;28;20028;-45
2022/09/24 02:32:09;;;;;;;34.08;25.48;;;;;;;11.38;100.00;101096.00;5114696;28;20054;-44
2022/09/24 02:34:39;;;;;;;33.30;25.23;;;;;;;11.36;100.00;101089.09;5114021;28;20027;-44
2022/09/24 02:37:08;;;;;;;34.38;25.60;;;;;;;11.36;100.00;101088.19;5114019;28;20027;-45
2022/09/24 02:39:35;;;;;;;32.00;25.40;;;;;;;11.35;100.00;101086.47;5114011;28;20047;-44
2022/09/24 02:42:04;;;;;;;35.50;26.67;;;;;;;11.35;100.00;101086.47;5114240;28;20024;-45
2022/09/24 02:44:30;;;;;;;36.15;27.05;;;;;;;11.37;100.00;101089.94;5114449;28;20161;-44
2022/09/24 02:46:55;;;;;;;35.65;27.40;;;;;;;11.35;100.00;101084.75;5114324;28;20095;-45
2022/09/24 02:49:20;;;;;;;31.60;25.75;;;;;;;11.37;100.00;101079.63;5113514;28;20031;-45
2022/09/24 02:51:46;;;;;;;36.88;27.67;;;;;;;11.35;100.00;101076.16;5113934;28;20028;-48
2022/09/24 02:54:11;;;;;;;35.65;27.58;;;;;;;11.35;100.00;101081.31;5114131;28;20016;-47
2022/09/24 02:56:37;;;;;;;35.10;27.02;;;;;;;11.35;100.00;101081.31;5112322;28;20588;-47
2022/09/24 02:59:03;;;;;;;40.53;29.98;;;;;;;11.34;100.00;101079.56;5114160;28;20019;-46
2022/09/24 03:01:29;;;;;;;38.50;30.50;;;;;;;11.33;100.00;101075.22;5114249;28;20094;-47
2022/09/24 03:03:55;;;;;;;43.10;28.98;;;;;;;11.36;100.00;101077.88;5112974;28;20038;-45
2022/09/24 03:06:20;;;;;;;38.97;30.15;;;;;;;11.36;100.00;101072.72;5114051;28;20015;-47
2022/09/24 03:08:46;;;;;;;38.70;30.60;;;;;;;11.34;100.00;101072.66;5113693;28;20405;-46
2022/09/24 03:11:12;;;;;;;39.67;30.80;;;;;;;11.36;100.00;101077.88;5112907;28;20019;-47
2022/09/24 03:13:38;;;;;;;43.78;32.33;;;;;;;11.35;100.00;101069.28;5113531;28;20374;-46
2022/09/24 03:16:08;;;;;;;43.60;32.35;;;;;;;11.34;100.00;101070.09;5113662;28;20023;-46
2022/09/24 03:18:34;;;;;;;47.38;34.63;;;;;;;11.34;100.00;101062.34;5112955;28;20474;-46
2022/09/24 03:21:02;;;;;;;49.95;36.67;;;;;;;11.35;100.00;101071.84;5113721;28;20016;-45
2022/09/24 03:23:27;;;;;;;51.45;37.17;;;;;;;11.36;100.00;101067.56;5113279;28;20034;-47
2022/09/24 03:25:53;;;;;;;51.85;37.45;;;;;;;11.35;100.00;101064.09;5113004;28;20023;-47
2022/09/24 03:28:19;;;;;;;58.78;41.55;;;;;;;11.36;100.00;101059.81;5113785;28;20023;-47
2022/09/24 03:31:00;;;;;;;61.17;41.80;;;;;;;11.36;100.00;101058.13;5113116;28;20030;-46
2022/09/24 03:33:30;;;;;;;62.47;43.42;;;;;;;11.38;100.00;101059.88;5112967;28;20024;-43
2022/09/24 03:36:08;;;;;;;60.28;43.58;;;;;;;11.37;100.00;101064.16;5113396;28;20063;-46
2022/09/24 03:38:35;;;;;;;65.22;46.60;;;;;;;11.38;100.00;101063.31;5112314;28;20464;-47
2022/09/24 03:41:02;;;;;;;67.28;45.65;;;;;;;11.37;100.00;101058.97;5113270;28;20043;-46
2022/09/24 03:43:30;;;;;;;65.37;45.80;;;;;;;11.36;100.00;101058.13;5113551;28;20055;-47
2022/09/24 03:45:56;;;;;;;66.45;46.45;;;;;;;11.36;100.00;101063.28;5112501;28;20291;-45
2022/09/24 03:48:23;;;;;;;73.38;49.15;;;;;;;11.35;100.00;101055.50;5113703;28;20036;-48
2022/09/24 03:50:49;;;;;;;73.17;48.73;;;;;;;11.38;100.00;101054.72;5112980;28;20070;-47
2022/09/24 03:53:16;;;;;;;70.68;49.00;;;;;;;11.36;100.00;101047.81;5112478;28;20288;-47
2022/09/24 03:55:52;;;;;;;75.45;49.90;;;;;;;11.35;100.00;101047.75;5113222;28;20027;-46
2022/09/24 03:58:17;;;;;;;74.18;52.08;;;;;;;11.37;100.00;101043.50;5113126;28;20032;-47
2022/09/24 04:00:43;;;;;;;72.32;49.40;;;;;;;11.35;100.00;101040.03;5112498;28;20062;-46
2022/09/24 04:03:08;;;;;;;66.35;47.80;;;;;;;11.36;100.00;101044.31;5113104;28;20080;-48
2022/09/24 04:05:34;;;;;;;71.53;48.53;;;;;;;11.36;100.00;101040.06;5112787;28;20478;-47
2022/09/24 04:08:01;;;;;;;69.20;48.22;;;;;;;11.35;100.00;101035.72;5115919;28;20023;-47
2022/09/24 04:10:27;;;;;;;72.00;48.60;;;;;;;11.35;100.00;101046.03;5117202;28;20068;-48
2022/09/24 04:12:52;;;;;;;71.15;48.53;;;;;;;11.35;100.00;101037.44;5116783;28;20023;-47
2022/09/24 04:15:18;;;;;;;72.13;49.42;;;;;;;11.35;100.00;101042.59;5116615;28;20030;-47
2022/09/24 04:17:55;;;;;;;70.55;49.08;;;;;;;11.37;100.00;101035.75;5116775;28;20031;-46
2022/09/24 04:20:26;;;;;;;70.32;49.15;;;;;;;11.35;100.00;101035.72;5117148;28;20063;-45
2022/09/24 04:22:54;;;;;;;69.18;47.35;;;;;;;11.37;100.00;101033.19;5116471;28;20024;-47
2022/09/24 04:25:20;;;;;;;71.75;48.78;;;;;;;11.36;100.00;101031.41;5117060;28;20039;-46
2022/09/24 04:27:51;;;;;;;67.15;47.63;;;;;;;11.36;100.00;101027.16;5115851;28;20019;-45
2022/09/24 04:30:16;;;;;;;68.15;45.95;;;;;;;11.36;100.00;101027.16;5116855;28;20032;-45
2022/09/24 04:32:41;;;;;;;66.68;45.90;;;;;;;11.36;100.00;101026.25;5116840;28;20031;-47
2022/09/24 04:35:07;;;;;;;69.72;46.60;;;;;;;11.36;100.00;101031.41;5116136;28;20020;-47
2022/09/24 04:37:33;;;;;;;65.68;45.05;;;;;;;11.35;100.00;101029.69;5116611;28;20024;-46
2022/09/24 04:39:58;;;;;;;67.07;46.70;;;;;;;11.36;100.00;101028.84;5116616;28;20040;-48
2022/09/24 04:42:23;;;;;;;64.53;45.35;;;;;;;11.36;100.00;101032.31;5115784;28;20024;-45
2022/09/24 04:44:49;;;;;;;66.10;44.60;;;;;;;11.36;100.00;101034.00;5116303;28;20038;-47
2022/09/24 04:47:14;;;;;;;60.55;44.45;;;;;;;11.36;100.00;101028.84;5116605;28;20024;-44
2022/09/24 04:49:44;;;;;;;63.20;45.13;;;;;;;11.35;100.00;101034.84;5115893;28;20417;-46
2022/09/24 04:52:13;;;;;;;67.10;45.15;;;;;;;11.36;100.00;101028.84;5116654;28;20023;-46
2022/09/24 04:54:41;;;;;;;65.88;45.40;;;;;;;11.33;100.00;101029.63;5116092;28;20057;-45
2022/09/24 04:57:06;;;;;;;62.80;42.83;;;;;;;11.33;100.00;101032.22;5115952;28;20107;-44
2022/09/24 04:59:32;;;;;;;66.25;45.95;;;;;;;11.34;100.00;101027.94;5115971;28;20059;-48
2022/09/24 05:02:00;;;;;;;67.95;44.97;;;;;;;11.33;100.00;101026.19;5116187;28;20072;-45
2022/09/24 05:04:25;;;;;;;64.90;44.13;;;;;;;11.34;100.00;101025.34;5115694;28;20138;-44
2022/09/24 05:06:50;;;;;;;67.85;44.30;;;;;;;11.31;100.00;101023.56;5116214;28;20453;-44
2022/09/24 05:09:16;;;;;;;65.50;44.72;;;;;;;11.31;100.00;101027.84;5115964;28;20031;-47
2022/09/24 05:11:41;;;;;;;61.63;43.55;;;;;;;11.31;100.00;101025.25;5115257;28;20542;-48
2022/09/24 05:14:07;;;;;;;66.75;45.03;;;;;;;11.31;100.00;101028.72;5116046;28;20028;-45
2022/09/24 05:16:32;;;;;;;65.78;44.65;;;;;;;11.30;100.00;101020.94;5115459;28;20458;-45
2022/09/24 05:18:57;;;;;;;65.18;42.97;;;;;;;11.29;100.00;101020.06;5114609;28;20481;-47
2022/09/24 05:21:23;;;;;;;62.45;43.28;;;;;;;11.29;100.00;101027.78;5116070;28;20065;-46
2022/09/24 05:23:48;;;;;;;65.47;44.55;;;;;;;11.30;100.00;101026.09;5115003;28;20016;-48
2022/09/24 05:28:57;;;;;;;56.28;39.60;;;;;;;11.30;100.00;101031.25;5116139;28;20062;-45
2022/09/24 05:31:22;;;;;;;58.80;40.63;;;;;;;11.30;100.00;101031.25;5115034;28;20466;-45
2022/09/24 05:33:48;;;;;;;53.97;39.13;;;;;;;11.31;100.00;101033.88;5115467;28;20028;-47
2022/09/24 05:36:13;;;;;;;51.83;37.45;;;;;;;11.30;100.00;101031.25;5115493;28;20016;-49
2022/09/24 05:38:38;;;;;;;55.17;38.25;;;;;;;11.30;100.00;101031.25;5114632;28;20036;-44
2022/09/24 05:41:04;;;;;;;51.10;35.63;;;;;;;11.31;100.00;101030.41;5115283;28;20047;-48
2022/09/24 05:43:30;;;;;;;49.58;35.67;;;;;;;11.32;100.00;101037.31;5115382;28;20478;-46
2022/09/24 05:45:57;;;;;;;50.13;35.75;;;;;;;11.32;100.00;101038.22;5114818;28;20039;-45
2022/09/24 05:48:23;;;;;;;50.60;35.17;;;;;;;11.32;100.00;101039.91;5120754;27;20420;-47
2022/09/24 05:50:48;;;;;;;42.70;32.60;;;;;;;11.31;100.00;101031.31;5117386;27;20039;-44
2022/09/24 05:53:14;;;;;;;42.95;32.30;;;;;;;11.31;100.00;101039.03;5115038;27;20081;-44
2022/09/24 05:55:41;;;;;;;45.42;32.80;;;;;;;11.33;100.00;101052.00;5115837;27;20050;-47
2022/09/24 05:58:09;;;;;;;40.35;30.75;;;;;;;11.32;100.00;101045.06;5117937;27;20434;-42
2022/09/24 06:00:35;;;;;;;40.72;31.27;;;;;;;11.32;100.00;101040.81;5114290;27;20118;-45
2022/09/24 06:03:09;;;;;;;40.72;30.20;;;;;;;11.33;100.00;101046.81;5114910;28;20107;-47
2022/09/24 06:05:34;;;;;;;39.35;29.70;;;;;;;11.34;100.00;101048.59;5113717;27;20490;-45
2022/09/24 06:08:01;;;;;;;40.00;30.38;;;;;;;11.33;100.00;101045.09;5132659;27;20025;-46
2022/09/24 06:10:26;;;;;;;40.30;30.25;;;;;;;11.33;100.00;101049.41;5133636;27;20123;-42
2022/09/24 06:12:52;;;;;;;46.42;31.65;;;;;;;11.34;100.00;101048.59;5119364;27;20103;-46
2022/09/24 06:15:18;;;;;;;39.15;29.88;;;;;;;11.34;100.00;101054.59;5120104;27;20030;-43
2022/09/24 06:17:43;;;;;;;39.85;30.90;;;;;;;11.33;100.00;101046.81;5134459;27;20027;-43
2022/09/24 06:20:08;;;;;;;42.83;31.33;;;;;;;11.33;100.00;101055.44;5120684;27;20459;-46
2022/09/24 06:22:34;;;;;;;42.75;31.38;;;;;;;11.32;100.00;101047.66;5114383;28;20060;-45
2022/09/24 06:24:59;;;;;;;45.35;32.10;;;;;;;11.33;100.00;101052.84;5114536;28;20413;-45
2022/09/24 06:27:24;;;;;;;43.20;32.40;;;;;;;11.34;100.00;101056.31;5114757;27;20032;-47
2022/09/24 06:29:50;;;;;;;45.45;33.97;;;;;;;11.33;100.00;101052.00;5113650;28;20440;-45
2022/09/24 06:32:15;;;;;;;45.92;33.65;;;;;;;11.33;100.00;101057.16;5128263;27;20027;-42
2022/09/24 06:34:40;;;;;;;45.90;33.88;;;;;;;11.32;100.00;101057.97;5118211;27;20148;-48
2022/09/24 06:37:05;;;;;;;52.10;35.53;;;;;;;11.32;100.00;101058.88;5114154;28;20455;-46
2022/09/24 06:39:31;;;;;;;48.15;35.10;;;;;;;11.31;100.00;101062.28;5116174;27;20023;-46
2022/09/24 06:41:57;;;;;;;53.05;33.92;;;;;;;11.32;100.00;101068.28;5113783;28;20024;-47
2022/09/24 06:44:22;;;;;;;47.05;33.75;;;;;;;11.33;100.00;101068.34;5113740;27;20039;-42
2022/09/24 06:46:48;;;;;;;45.88;33.63;;;;;;;11.35;100.00;101065.81;5113615;27;20034;-44
2022/09/24 06:49:13;;;;;;;46.70;33.83;;;;;;;11.36;100.00;101064.97;5115489;27;20463;-42
2022/09/24 06:51:38;;;;;;;47.10;34.35;;;;;;;11.35;100.00;101069.28;5113913;28;20494;-43
2022/09/24 06:54:04;;;;;;;48.30;34.78;;;;;;;11.40;100.00;101071.09;5113831;28;20467;-45
2022/09/24 06:56:30;;;;;;;47.28;34.22;;;;;;;11.39;100.00;101071.94;5113765;28;20019;-46
2022/09/24 06:58:55;;;;;;;45.35;33.78;;;;;;;11.42;100.00;101078.06;5113977;28;20386;-47
2022/09/24 07:01:21;;;;;;;43.47;32.80;;;;;;;11.42;100.00;101085.81;5113836;28;20030;-43
2022/09/24 07:03:46;;;;;;;39.28;29.13;;;;;;;11.39;100.00;101070.25;5113111;28;20027;-43
2022/09/24 07:06:11;;;;;;;40.17;30.45;;;;;;;11.41;100.00;101081.47;5113839;28;20450;-42
2022/09/24 07:08:37;;;;;;;38.28;30.10;;;;;;;11.44;100.00;101081.56;5113272;28;20480;-46
2022/09/24 07:11:02;;;;;;;44.72;32.25;;;;;;;11.44;100.00;101076.41;5114166;27;20023;-47
2022/09/24 07:13:28;;;;;;;42.13;31.38;;;;;;;11.42;100.00;101080.63;5113502;28;20032;-46
2022/09/24 07:15:53;;;;;;;42.33;31.00;;;;;;;11.44;100.00;101085.84;5113361;28;20054;-46
2022/09/24 07:18:19;;;;;;;45.45;33.38;;;;;;;11.44;100.00;101088.44;5116178;27;20379;-46
2022/09/24 07:20:53;;;;;;;43.10;33.15;;;;;;;11.44;100.00;101091.00;5116962;27;20100;-47
2022/09/24 07:23:20;;;;;;;48.88;34.08;;;;;;;11.45;100.00;101088.50;5116993;27;20026;-42
2022/09/24 07:25:45;;;;;;;47.60;33.75;;;;;;;11.45;100.00;101088.50;5116746;27;20031;-44
2022/09/24 07:28:13;;;;;;;50.00;34.92;;;;;;;11.45;100.00;101088.50;5115690;27;20016;-46
2022/09/24 07:30:39;;;;;;;45.13;34.33;;;;;;;11.44;100.00;101084.16;5118893;27;20106;-47
2022/09/24 07:33:06;;;;;;;38.25;29.23;;;;;;;11.42;100.00;101090.97;5118609;27;20115;-47
2022/09/24 07:35:32;;;;;;;47.27;33.67;;;;;;;11.47;100.00;101093.69;5118933;27;20028;-47
2022/09/24 07:38:03;;;;;;;48.30;34.47;;;;;;;11.45;100.00;101103.97;5123694;27;20111;-48
2022/09/24 07:40:29;;;;;;;47.70;35.22;;;;;;;11.47;100.00;101091.13;5123107;27;20039;-46
2022/09/24 07:42:55;;;;;;;43.42;33.17;;;;;;;11.46;100.00;101099.69;5119437;27;20517;-45
2022/09/24 07:45:22;;;;;;;49.25;34.60;;;;;;;11.47;100.00;101104.03;5113846;27;20055;-47
2022/09/24 07:47:58;;;;;;;45.30;33.60;;;;;;;11.48;100.00;101110.94;5117956;28;20028;-48
2022/09/24 07:50:24;;;;;;;47.67;35.20;;;;;;;11.47;100.00;101107.47;5124589;28;20020;-45
2022/09/24 07:52:50;;;;;;;48.80;36.53;;;;;;;11.46;100.00;101108.28;5112405;28;20303;-46
2022/09/24 07:55:15;;;;;;;51.00;37.40;;;;;;;11.48;100.00;101109.22;5113341;28;20123;-47
2022/09/24 07:57:46;;;;;;;51.85;36.88;;;;;;;11.48;100.00;101118.69;5112471;28;20039;-44
2022/09/24 08:00:12;;;;;;;50.92;36.45;;;;;;;11.48;100.00;101113.53;5114186;28;20043;-43
2022/09/24 08:02:37;;;;;;;52.67;37.95;;;;;;;11.50;100.00;101111.84;5133318;28;20031;-43
2022/09/24 08:05:03;;;;;;;56.13;39.83;;;;;;;11.50;100.00;101112.75;5133437;28;20130;-47
2022/09/24 08:07:29;;;;;;;53.85;40.42;;;;;;;11.53;100.00;101112.81;5133283;28;20094;-46
2022/09/24 08:09:54;;;;;;;57.75;40.75;;;;;;;11.58;100.00;101114.66;5133447;28;20038;-46
2022/09/24 08:12:19;;;;;;;58.72;42.05;;;;;;;11.58;100.00;101117.22;5133503;28;20093;-45
2022/09/24 08:14:45;;;;;;;55.25;41.38;;;;;;;11.62;100.00;101116.50;5132621;28;20438;-45
2022/09/24 08:17:10;;;;;;;56.38;39.95;;;;;;;11.61;100.00;101117.34;5133513;28;20518;-46
2022/09/24 08:19:36;;;;;;;52.30;38.70;;;;;;;11.62;100.00;101121.66;5132943;28;20019;-43
2022/09/24 08:22:04;;;;;;;58.22;40.55;;;;;;;11.64;100.00;101126.03;5133124;28;20019;-48
2022/09/24 08:24:30;;;;;;;57.47;39.83;;;;;;;11.63;100.00;101123.41;5133562;28;20069;-47
2022/09/24 08:26:57;;;;;;;57.78;40.72;;;;;;;11.65;100.00;101132.94;5132806;28;20015;-45
2022/09/24 08:29:22;;;;;;;57.60;40.72;;;;;;;11.66;100.00;101126.09;5133571;28;20023;-46
2022/09/24 08:31:48;;;;;;;61.35;41.88;;;;;;;11.69;100.00;101131.34;5132947;28;20124;-46
2022/09/24 08:34:13;;;;;;;58.42;42.53;;;;;;;11.73;100.00;101130.59;5133080;28;20019;-45
2022/09/24 08:36:38;;;;;;;59.40;42.35;;;;;;;11.77;100.00;101131.56;5133354;28;20029;-46
2022/09/24 08:39:05;;;;;;;54.95;41.40;;;;;;;11.80;100.00;101129.06;5133081;28;20023;-44
2022/09/24 08:41:56;;;;;;;53.37;40.30;;;;;;;11.86;100.00;101131.84;5132348;28;20385;-46
2022/09/24 08:47:37;;;;;;;51.60;38.92;;;;;;;11.80;100.00;101142.88;5132811;28;20088;-48
2022/09/24 08:50:08;;;;;;;;;;;;;;;11.86;100.00;101143.06;5133166;28;20027;-45
2022/09/24 08:52:40;;;;;;;51.85;39.03;;;;;;;11.81;100.00;101143.72;5132879;27;20351;-47
2022/09/24 08:55:12;;;;;;;54.40;39.38;;;;;;;11.83;100.00;101150.69;5135255;27;20035;-45
2022/09/24 08:57:49;;;;;;;54.40;39.13;;;;;;;11.86;100.00;101153.38;5136588;27;20378;-47
2022/09/24 09:00:15;;;;;;;49.20;37.53;;;;;;;11.85;100.00;101149.03;5136617;27;20482;-44
2022/09/24 09:03:21;;;;;;;53.15;37.95;;;;;;;11.93;100.00;101154.44;5136029;27;20034;-47
2022/09/24 09:05:46;;;;;;;49.67;38.60;;;;;;;11.92;100.00;101156.97;5033172;28;20132;-45
2022/09/24 09:08:47;;;;;;;47.80;36.08;;;;;;;11.97;100.00;101158.03;5118764;27;20449;-47
2022/09/24 09:11:15;;;;;;;47.72;36.60;;;;;;;11.98;100.00;101158.06;5130862;27;20047;-46
2022/09/24 09:14:08;;;;;;;47.92;37.63;;;;;;;12.05;100.00;101159.09;5136239;27;20024;-48
2022/09/24 09:16:46;;;;;;;45.92;35.28;;;;;;;12.06;100.00;101160.88;5135878;27;20030;-45
2022/09/24 09:19:14;;;;;;;49.22;36.40;;;;;;;12.04;100.00;101167.69;5136518;27;20436;-44
2022/09/24 09:21:51;;;;;;;48.63;36.75;;;;;;;12.09;100.00;101162.66;5136056;27;20019;-48
2022/09/24 09:24:23;;;;;;;48.40;35.92;;;;;;;12.04;100.00;101162.50;5135929;27;20031;-44
2022/09/24 09:26:54;;;;;;;47.25;35.53;;;;;;;12.02;100.00;101166.78;5136154;27;20430;-47
2022/09/24 09:29:24;;;;;;;50.92;37.60;;;;;;;12.04;100.00;101172.84;5136026;27;20458;-45
2022/09/24 09:31:50;;;;;;;46.13;36.88;;;;;;;12.02;100.00;101175.41;5135597;27;20054;-44
2022/09/24 09:34:42;;;;;;;48.97;38.15;;;;;;;12.08;100.00;101176.41;5136110;27;20042;-43
2022/09/24 09:37:25;;;;;;;53.47;38.83;;;;;;;12.12;100.00;101166.22;5135605;27;20035;-46
2022/09/24 09:40:23;;;;;;;47.67;37.83;;;;;;;12.13;100.00;101167.94;5135686;27;20031;-45
2022/09/24 09:42:49;;;;;;;48.55;37.63;;;;;;;12.14;100.00;101161.09;5135556;27;20360;-46
2022/09/24 09:45:24;;;;;;;50.53;38.55;;;;;;;12.15;100.00;101168.88;5135328;27;20087;-44
2022/09/24 09:47:54;;;;;;;46.33;34.13;;;;;;;12.12;100.00;101168.78;5135975;27;20910;-42
2022/09/24 09:50:31;;;;;;;42.28;33.83;;;;;;;12.19;100.00;101173.28;5135739;27;20027;-45
2022/09/24 09:52:57;;;;;;;44.42;34.95;;;;;;;12.21;100.00;101169.88;5135291;27;20088;-42
2022/09/24 09:55:30;;;;;;;48.95;38.30;;;;;;;12.26;100.00;101174.31;5134987;27;20031;-42
2022/09/24 09:58:13;;;;;;;47.92;37.47;;;;;;;12.33;100.00;101172.78;5135770;27;20031;-44
2022/09/24 10:00:39;;;;;;;46.92;37.30;;;;;;;12.31;100.00;101161.53;5135592;27;20031;-43
2022/09/24 10:03:05;;;;;;;53.83;39.22;;;;;;;12.42;100.00;101170.47;5135328;27;20355;-47
2022/09/24 10:05:30;;;;;;;48.28;36.95;;;;;;;12.41;100.00;101167.81;5134606;27;20031;-42
2022/09/24 10:07:56;;;;;;;47.30;36.08;;;;;;;12.50;100.00;101179.31;5135568;27;20025;-46
2022/09/24 10:10:31;;;;;;;46.20;35.63;;;;;;;12.57;100.00;101179.47;5135491;27;20027;-46
2022/09/24 10:13:07;;;;;;;49.35;37.70;;;;;;;12.68;100.00;101173.75;5135039;27;20027;-47
2022/09/24 10:15:34;;;;;;;43.22;34.88;;;;;;;12.80;100.00;101175.75;5135302;27;20015;-48
2022/09/24 10:18:00;;;;;;;46.63;34.70;;;;;;;12.78;100.00;101172.28;5135175;27;20023;-46
2022/09/24 10:20:32;;;;;;;44.10;34.80;;;;;;;12.87;100.00;101168.16;5134920;27;20107;-45
2022/09/24 10:23:06;;;;;;;46.10;34.10;;;;;;;12.88;100.00;101164.75;5135440;27;20026;-48
2022/09/24 10:25:35;;;;;;;44.30;34.40;;;;;;;12.93;100.00;101163.16;5134756;27;20027;-46
2022/09/24 10:30:59;;;;;;;38.95;32.17;;;;;;;13.12;100.00;101169.66;5135204;27;20049;-42
2022/09/24 10:33:26;;;;;;;37.40;30.50;;;;;;;13.15;100.00;101169.72;5134453;27;20016;-46
2022/09/24 10:36:03;;;;;;;36.55;29.45;;;;;;;13.09;100.00;101170.47;5134829;27;20105;-48
2022/09/24 10:38:30;;;;;;;37.58;29.70;;;;;;;13.09;100.00;101167.88;5134912;27;20068;-43
2022/09/24 10:40:56;;;;;;;38.30;29.90;;;;;;;13.11;100.00;101166.19;5134263;27;20078;-47
2022/09/24 10:43:21;;;;;;;38.72;30.25;;;;;;;13.12;100.00;101170.53;5134851;27;20061;-44
2022/09/24 10:46:20;;;;;;;39.15;28.70;;;;;;;13.18;100.00;101175.84;5134462;27;20377;-48
2022/09/24 10:49:17;;;;;;;38.25;29.88;;;;;;;13.23;100.00;101175.94;5133920;27;20023;-47
2022/09/24 10:52:09;;;;;;;33.47;27.48;;;;;;;13.21;100.00;101179.34;5099301;27;20035;-46
2022/09/24 10:54:40;;;;;;;38.38;29.73;;;;;;;13.18;100.00;101177.56;5133735;27;20053;-43
2022/09/24 10:57:20;;;;;;;40.88;31.48;;;;;;;13.22;100.00;101178.50;5134683;27;20107;-48
2022/09/24 11:00:09;;;;;;;38.53;29.20;;;;;;;13.34;100.00;101176.22;5134087;27;20362;-46
2022/09/24 11:02:44;;;;;;;35.90;29.27;;;;;;;13.41;100.00;101172.09;5122617;27;20180;-46
2022/09/24 11:05:21;;;;;;;36.97;29.00;;;;;;;13.53;100.00;101174.06;5134647;27;20027;-46
2022/09/24 11:07:47;;;;;;;;;;;;;;;13.72;100.00;101183.13;5134353;27;20490;-46
2022/09/24 11:10:43;;;;;;;33.33;26.95;;;;;;;13.68;100.00;101181.34;5133750;27;19973;-46
2022/09/24 11:13:16;;;;;;;37.20;28.60;;;;;;;13.62;100.00;101182.94;5134526;27;20111;-47
2022/09/24 11:16:07;;;;;;;33.38;27.55;;;;;;;13.70;100.00;101185.72;5133558;27;20050;-45
2022/09/24 11:18:49;;;;;;;36.08;28.42;;;;;;;13.72;100.00;101191.78;5133730;27;20051;-44
2022/09/24 11:21:36;;;;;;;38.05;29.13;;;;;;;13.61;100.00;101198.44;5133998;27;20470;-43
2022/09/24 11:24:23;;;;;;;37.90;28.95;;;;;;;13.73;100.00;101193.53;5133685;27;20542;-46